sensor_id;sensor_type;location;lat;lon;timestamp;temperature;humidity
7218;DHT22;3650;53.580;10.094;2023-06-19T00:01:39;23.00;33.30
7218;DHT22;3650;53.580;10.094;2023-06-19T00:04:06;22.90;32.90
7218;DHT22;3650;53.580;10.094;2023-06-19T00:06:33;22.90;32.90
7218;DHT22;3650;53.580;10.094;2023-06-19T00:09:01;22.90;33.10
7218;DHT22;3650;53.580;10.094;2023-06-19T00:11:29;22.90;33.10
7218;DHT22;3650;53.580;10.094;2023-06-19T00:13:55;22.90;33.10
7218;DHT22;3650;53.580;10.094;2023-06-19T00:16:22;22.80;32.90
7218;DHT22;3650;53.580;10.094;2023-06-19T00:18:50;22.80;33.10
7218;DHT22;3650;53.580;10.094;2023-06-19T00:21:21;22.80;33.10
7218;DHT22;3650;53.580;10.094;2023-06-19T00:23:49;22.80;33.10
7218;DHT22;3650;53.580;10.094;2023-06-19T00:26:18;22.80;33.10
7218;DHT22;3650;53.580;10.094;2023-06-19T00:28:48;22.80;33.10
7218;DHT22;3650;53.580;10.094;2023-06-19T00:31:15;22.80;33.00
7218;DHT22;3650;53.580;10.094;2023-06-19T00:33:42;22.80;33.00
7218;DHT22;3650;53.580;10.094;2023-06-19T00:36:09;22.80;33.10
7218;DHT22;3650;53.580;10.094;2023-06-19T00:38:37;22.90;33.20
7218;DHT22;3650;53.580;10.094;2023-06-19T00:41:04;22.80;33.10
7218;DHT22;3650;53.580;10.094;2023-06-19T00:43:33;22.80;33.20
7218;DHT22;3650;53.580;10.094;2023-06-19T00:46:00;22.80;33.20
7218;DHT22;3650;53.580;10.094;2023-06-19T00:48:28;22.80;33.20
7218;DHT22;3650;53.580;10.094;2023-06-19T00:50:56;22.90;33.10
7218;DHT22;3650;53.580;10.094;2023-06-19T00:53:23;22.80;33.10
7218;DHT22;3650;53.580;10.094;2023-06-19T00:55:51;22.80;33.30
7218;DHT22;3650;53.580;10.094;2023-06-19T00:58:18;22.80;33.20
7218;DHT22;3650;53.580;10.094;2023-06-19T01:00:46;22.80;33.20
7218;DHT22;3650;53.580;10.094;2023-06-19T01:03:13;22.80;33.20
7218;DHT22;3650;53.580;10.094;2023-06-19T01:05:40;22.80;33.40
7218;DHT22;3650;53.580;10.094;2023-06-19T01:08:11;22.80;33.40
7218;DHT22;3650;53.580;10.094;2023-06-19T01:10:41;22.80;33.40
7218;DHT22;3650;53.580;10.094;2023-06-19T01:13:13;22.80;33.30
7218;DHT22;3650;53.580;10.094;2023-06-19T01:15:42;22.90;33.30
7218;DHT22;3650;53.580;10.094;2023-06-19T01:18:10;22.80;33.20
7218;DHT22;3650;53.580;10.094;2023-06-19T01:20:38;22.80;33.30
7218;DHT22;3650;53.580;10.094;2023-06-19T01:23:10;22.90;33.60
7218;DHT22;3650;53.580;10.094;2023-06-19T01:25:37;22.80;33.40
7218;DHT22;3650;53.580;10.094;2023-06-19T01:28:05;22.80;33.40
7218;DHT22;3650;53.580;10.094;2023-06-19T01:30:35;22.80;33.70
7218;DHT22;3650;53.580;10.094;2023-06-19T01:33:07;22.80;33.70
7218;DHT22;3650;53.580;10.094;2023-06-19T01:35:38;22.80;33.80
7218;DHT22;3650;53.580;10.094;2023-06-19T01:38:06;22.80;34.00
7218;DHT22;3650;53.580;10.094;2023-06-19T01:40:35;22.80;33.90
7218;DHT22;3650;53.580;10.094;2023-06-19T01:43:04;22.80;33.90
7218;DHT22;3650;53.580;10.094;2023-06-19T01:45:32;22.80;34.00
7218;DHT22;3650;53.580;10.094;2023-06-19T01:47:58;22.80;34.00
7218;DHT22;3650;53.580;10.094;2023-06-19T01:50:25;22.80;34.00
7218;DHT22;3650;53.580;10.094;2023-06-19T01:52:52;22.80;34.00
7218;DHT22;3650;53.580;10.094;2023-06-19T01:55:19;22.80;34.00
7218;DHT22;3650;53.580;10.094;2023-06-19T01:57:48;22.80;34.00
7218;DHT22;3650;53.580;10.094;2023-06-19T02:00:15;22.80;34.00
7218;DHT22;3650;53.580;10.094;2023-06-19T02:02:43;22.80;34.00
7218;DHT22;3650;53.580;10.094;2023-06-19T02:05:09;22.80;34.00
7218;DHT22;3650;53.580;10.094;2023-06-19T02:07:36;22.90;34.10
7218;DHT22;3650;53.580;10.094;2023-06-19T02:10:03;22.80;34.00
7218;DHT22;3650;53.580;10.094;2023-06-19T02:12:30;22.80;34.10
7218;DHT22;3650;53.580;10.094;2023-06-19T02:14:58;22.80;34.20
7218;DHT22;3650;53.580;10.094;2023-06-19T02:17:25;22.80;34.30
7218;DHT22;3650;53.580;10.094;2023-06-19T02:19:52;22.80;34.30
7218;DHT22;3650;53.580;10.094;2023-06-19T02:22:19;22.80;34.40
7218;DHT22;3650;53.580;10.094;2023-06-19T02:24:45;22.80;34.30
7218;DHT22;3650;53.580;10.094;2023-06-19T02:27:12;22.80;34.30
7218;DHT22;3650;53.580;10.094;2023-06-19T02:29:39;22.80;34.40
7218;DHT22;3650;53.580;10.094;2023-06-19T02:32:08;22.80;34.30
7218;DHT22;3650;53.580;10.094;2023-06-19T02:34:34;22.80;34.30
7218;DHT22;3650;53.580;10.094;2023-06-19T02:37:01;22.80;34.40
7218;DHT22;3650;53.580;10.094;2023-06-19T02:39:29;22.70;34.30
7218;DHT22;3650;53.580;10.094;2023-06-19T02:41:56;22.80;34.50
7218;DHT22;3650;53.580;10.094;2023-06-19T02:44:22;22.80;34.60
7218;DHT22;3650;53.580;10.094;2023-06-19T02:46:49;22.70;34.60
7218;DHT22;3650;53.580;10.094;2023-06-19T02:49:17;22.70;34.60
7218;DHT22;3650;53.580;10.094;2023-06-19T02:51:44;22.70;34.70
7218;DHT22;3650;53.580;10.094;2023-06-19T02:54:11;22.70;34.70
7218;DHT22;3650;53.580;10.094;2023-06-19T02:56:38;22.70;34.90
7218;DHT22;3650;53.580;10.094;2023-06-19T02:59:04;22.70;35.00
7218;DHT22;3650;53.580;10.094;2023-06-19T03:01:31;22.70;35.10
7218;DHT22;3650;53.580;10.094;2023-06-19T03:03:59;22.60;35.20
7218;DHT22;3650;53.580;10.094;2023-06-19T03:06:27;22.60;35.40
7218;DHT22;3650;53.580;10.094;2023-06-19T03:08:54;22.60;35.30
7218;DHT22;3650;53.580;10.094;2023-06-19T03:11:21;22.60;35.30
7218;DHT22;3650;53.580;10.094;2023-06-19T03:13:49;22.60;35.30
7218;DHT22;3650;53.580;10.094;2023-06-19T03:16:16;22.60;35.30
7218;DHT22;3650;53.580;10.094;2023-06-19T03:18:43;22.60;35.40
7218;DHT22;3650;53.580;10.094;2023-06-19T03:21:10;22.60;35.30
7218;DHT22;3650;53.580;10.094;2023-06-19T03:23:38;22.60;35.30
7218;DHT22;3650;53.580;10.094;2023-06-19T03:26:06;22.60;35.30
7218;DHT22;3650;53.580;10.094;2023-06-19T03:28:33;22.60;35.30
7218;DHT22;3650;53.580;10.094;2023-06-19T03:31:00;22.50;35.30
7218;DHT22;3650;53.580;10.094;2023-06-19T03:33:27;22.50;35.30
7218;DHT22;3650;53.580;10.094;2023-06-19T03:35:54;22.50;35.30
7218;DHT22;3650;53.580;10.094;2023-06-19T03:38:20;22.50;35.30
7218;DHT22;3650;53.580;10.094;2023-06-19T03:40:48;22.50;35.30
7218;DHT22;3650;53.580;10.094;2023-06-19T03:43:15;22.50;36.40
7218;DHT22;3650;53.580;10.094;2023-06-19T03:45:42;22.30;36.70
7218;DHT22;3650;53.580;10.094;2023-06-19T03:48:09;22.50;36.30
7218;DHT22;3650;53.580;10.094;2023-06-19T03:50:36;22.40;35.90
7218;DHT22;3650;53.580;10.094;2023-06-19T03:53:02;22.40;35.90
7218;DHT22;3650;53.580;10.094;2023-06-19T03:55:30;22.40;35.70
7218;DHT22;3650;53.580;10.094;2023-06-19T03:57:58;22.40;35.90
7218;DHT22;3650;53.580;10.094;2023-06-19T04:00:24;22.50;36.00
7218;DHT22;3650;53.580;10.094;2023-06-19T04:02:51;22.40;36.00
7218;DHT22;3650;53.580;10.094;2023-06-19T04:05:18;22.40;36.00
7218;DHT22;3650;53.580;10.094;2023-06-19T04:07:45;22.40;36.10
7218;DHT22;3650;53.580;10.094;2023-06-19T04:10:12;22.40;36.00
7218;DHT22;3650;53.580;10.094;2023-06-19T04:12:39;22.40;35.90
7218;DHT22;3650;53.580;10.094;2023-06-19T04:15:08;22.40;35.70
7218;DHT22;3650;53.580;10.094;2023-06-19T04:17:35;22.40;35.90
7218;DHT22;3650;53.580;10.094;2023-06-19T04:20:02;22.40;35.80
7218;DHT22;3650;53.580;10.094;2023-06-19T04:22:36;22.40;35.80
7218;DHT22;3650;53.580;10.094;2023-06-19T04:25:03;22.40;35.80
7218;DHT22;3650;53.580;10.094;2023-06-19T04:27:30;22.40;35.60
7218;DHT22;3650;53.580;10.094;2023-06-19T04:29:57;22.50;35.80
7218;DHT22;3650;53.580;10.094;2023-06-19T04:32:25;22.40;35.70
7218;DHT22;3650;53.580;10.094;2023-06-19T04:34:52;22.40;35.80
7218;DHT22;3650;53.580;10.094;2023-06-19T04:37:18;22.40;36.10
7218;DHT22;3650;53.580;10.094;2023-06-19T04:39:45;22.40;36.30
7218;DHT22;3650;53.580;10.094;2023-06-19T04:42:13;22.40;36.10
7218;DHT22;3650;53.580;10.094;2023-06-19T04:44:44;22.40;36.20
7218;DHT22;3650;53.580;10.094;2023-06-19T04:47:11;22.40;36.20
7218;DHT22;3650;53.580;10.094;2023-06-19T04:49:39;22.40;36.30
7218;DHT22;3650;53.580;10.094;2023-06-19T04:52:07;22.40;36.20
7218;DHT22;3650;53.580;10.094;2023-06-19T04:54:34;22.40;36.30
7218;DHT22;3650;53.580;10.094;2023-06-19T04:57:00;22.40;36.40
7218;DHT22;3650;53.580;10.094;2023-06-19T04:59:28;22.40;36.30
7218;DHT22;3650;53.580;10.094;2023-06-19T05:01:55;22.40;37.00
7218;DHT22;3650;53.580;10.094;2023-06-19T05:04:23;22.40;37.10
7218;DHT22;3650;53.580;10.094;2023-06-19T05:06:52;22.40;37.10
7218;DHT22;3650;53.580;10.094;2023-06-19T05:09:18;22.40;37.00
7218;DHT22;3650;53.580;10.094;2023-06-19T05:11:46;22.40;37.00
7218;DHT22;3650;53.580;10.094;2023-06-19T05:14:12;22.40;36.70
7218;DHT22;3650;53.580;10.094;2023-06-19T05:16:39;22.40;36.80
7218;DHT22;3650;53.580;10.094;2023-06-19T05:19:06;22.40;36.90
7218;DHT22;3650;53.580;10.094;2023-06-19T05:21:33;22.40;36.70
7218;DHT22;3650;53.580;10.094;2023-06-19T05:24:01;22.40;36.70
7218;DHT22;3650;53.580;10.094;2023-06-19T05:26:28;22.40;36.60
7218;DHT22;3650;53.580;10.094;2023-06-19T05:28:55;22.40;36.50
7218;DHT22;3650;53.580;10.094;2023-06-19T05:31:21;22.40;36.40
7218;DHT22;3650;53.580;10.094;2023-06-19T05:33:48;22.40;36.40
7218;DHT22;3650;53.580;10.094;2023-06-19T05:36:15;22.40;36.50
7218;DHT22;3650;53.580;10.094;2023-06-19T05:38:42;22.40;36.80
7218;DHT22;3650;53.580;10.094;2023-06-19T05:41:10;22.40;37.10
7218;DHT22;3650;53.580;10.094;2023-06-19T05:43:36;22.40;39.00
7218;DHT22;3650;53.580;10.094;2023-06-19T05:46:03;22.40;41.10
7218;DHT22;3650;53.580;10.094;2023-06-19T05:48:30;22.40;39.60
7218;DHT22;3650;53.580;10.094;2023-06-19T05:50:57;22.30;40.90
7218;DHT22;3650;53.580;10.094;2023-06-19T05:53:23;22.30;41.10
7218;DHT22;3650;53.580;10.094;2023-06-19T05:55:50;22.30;41.20
7218;DHT22;3650;53.580;10.094;2023-06-19T05:58:18;22.20;40.40
7218;DHT22;3650;53.580;10.094;2023-06-19T06:00:46;22.20;39.80
7218;DHT22;3650;53.580;10.094;2023-06-19T06:03:13;22.20;39.90
7218;DHT22;3650;53.580;10.094;2023-06-19T06:05:40;22.20;39.60
7218;DHT22;3650;53.580;10.094;2023-06-19T06:08:07;22.20;39.70
7218;DHT22;3650;53.580;10.094;2023-06-19T06:10:34;22.30;43.30
7218;DHT22;3650;53.580;10.094;2023-06-19T06:13:01;22.20;42.60
7218;DHT22;3650;53.580;10.094;2023-06-19T06:15:29;22.20;44.70
7218;DHT22;3650;53.580;10.094;2023-06-19T06:17:55;22.20;43.10
7218;DHT22;3650;53.580;10.094;2023-06-19T06:20:22;22.20;45.30
7218;DHT22;3650;53.580;10.094;2023-06-19T06:22:49;22.20;45.30
7218;DHT22;3650;53.580;10.094;2023-06-19T06:25:15;22.10;44.80
7218;DHT22;3650;53.580;10.094;2023-06-19T06:27:42;22.10;46.40
7218;DHT22;3650;53.580;10.094;2023-06-19T06:30:10;22.10;46.40
7218;DHT22;3650;53.580;10.094;2023-06-19T06:32:39;22.10;46.80
7218;DHT22;3650;53.580;10.094;2023-06-19T06:35:07;22.00;47.40
7218;DHT22;3650;53.580;10.094;2023-06-19T06:37:33;22.00;47.40
7218;DHT22;3650;53.580;10.094;2023-06-19T06:40:02;22.00;49.60
7218;DHT22;3650;53.580;10.094;2023-06-19T06:42:33;22.00;52.10
7218;DHT22;3650;53.580;10.094;2023-06-19T06:45:00;22.00;52.30
7218;DHT22;3650;53.580;10.094;2023-06-19T06:47:26;22.00;51.80
7218;DHT22;3650;53.580;10.094;2023-06-19T06:49:54;22.00;51.40
7218;DHT22;3650;53.580;10.094;2023-06-19T06:52:21;22.00;52.40
7218;DHT22;3650;53.580;10.094;2023-06-19T06:54:48;22.00;53.80
7218;DHT22;3650;53.580;10.094;2023-06-19T06:57:15;22.00;53.80
7218;DHT22;3650;53.580;10.094;2023-06-19T06:59:41;22.00;54.80
7218;DHT22;3650;53.580;10.094;2023-06-19T07:02:08;22.00;57.10
7218;DHT22;3650;53.580;10.094;2023-06-19T07:04:35;22.00;59.50
7218;DHT22;3650;53.580;10.094;2023-06-19T07:07:03;22.00;58.30
7218;DHT22;3650;53.580;10.094;2023-06-19T07:09:31;22.00;57.10
7218;DHT22;3650;53.580;10.094;2023-06-19T07:11:58;22.00;59.20
7218;DHT22;3650;53.580;10.094;2023-06-19T07:14:25;22.00;58.30
7218;DHT22;3650;53.580;10.094;2023-06-19T07:16:51;21.90;58.40
7218;DHT22;3650;53.580;10.094;2023-06-19T07:19:18;22.00;56.10
7218;DHT22;3650;53.580;10.094;2023-06-19T07:21:45;22.00;55.40
7218;DHT22;3650;53.580;10.094;2023-06-19T07:24:13;22.00;54.30
7218;DHT22;3650;53.580;10.094;2023-06-19T07:26:40;22.00;53.50
7218;DHT22;3650;53.580;10.094;2023-06-19T07:29:07;22.00;52.80
7218;DHT22;3650;53.580;10.094;2023-06-19T07:31:33;22.10;53.30
7218;DHT22;3650;53.580;10.094;2023-06-19T07:34:00;22.10;55.60
7218;DHT22;3650;53.580;10.094;2023-06-19T07:36:27;22.10;56.20
7218;DHT22;3650;53.580;10.094;2023-06-19T07:38:55;22.00;56.80
7218;DHT22;3650;53.580;10.094;2023-06-19T07:41:23;22.10;59.30
7218;DHT22;3650;53.580;10.094;2023-06-19T07:43:50;22.10;58.30
7218;DHT22;3650;53.580;10.094;2023-06-19T07:46:16;22.00;58.80
7218;DHT22;3650;53.580;10.094;2023-06-19T07:48:43;22.00;60.30
7218;DHT22;3650;53.580;10.094;2023-06-19T07:51:10;22.00;60.70
7218;DHT22;3650;53.580;10.094;2023-06-19T07:53:37;22.00;63.20
7218;DHT22;3650;53.580;10.094;2023-06-19T07:56:05;22.00;62.00
7218;DHT22;3650;53.580;10.094;2023-06-19T07:58:33;22.00;62.90
7218;DHT22;3650;53.580;10.094;2023-06-19T08:01:00;22.00;62.90
7218;DHT22;3650;53.580;10.094;2023-06-19T08:03:26;22.00;64.10
7218;DHT22;3650;53.580;10.094;2023-06-19T08:05:53;22.00;62.50
7218;DHT22;3650;53.580;10.094;2023-06-19T08:08:20;22.00;60.40
7218;DHT22;3650;53.580;10.094;2023-06-19T08:10:47;22.00;60.30
7218;DHT22;3650;53.580;10.094;2023-06-19T08:13:14;22.10;60.40
7218;DHT22;3650;53.580;10.094;2023-06-19T08:15:42;22.10;59.80
7218;DHT22;3650;53.580;10.094;2023-06-19T08:18:10;22.10;57.40
7218;DHT22;3650;53.580;10.094;2023-06-19T08:20:36;22.10;57.90
7218;DHT22;3650;53.580;10.094;2023-06-19T08:23:03;22.20;57.10
7218;DHT22;3650;53.580;10.094;2023-06-19T08:25:30;22.20;54.90
7218;DHT22;3650;53.580;10.094;2023-06-19T08:27:56;22.30;55.50
7218;DHT22;3650;53.580;10.094;2023-06-19T08:30:23;22.30;55.60
7218;DHT22;3650;53.580;10.094;2023-06-19T08:32:51;22.40;56.70
7218;DHT22;3650;53.580;10.094;2023-06-19T08:35:18;22.40;57.80
7218;DHT22;3650;53.580;10.094;2023-06-19T08:37:45;22.50;58.30
7218;DHT22;3650;53.580;10.094;2023-06-19T08:40:12;22.50;56.60
7218;DHT22;3650;53.580;10.094;2023-06-19T08:42:39;22.60;54.90
7218;DHT22;3650;53.580;10.094;2023-06-19T08:45:08;22.60;53.00
7218;DHT22;3650;53.580;10.094;2023-06-19T08:47:35;22.70;51.50
7218;DHT22;3650;53.580;10.094;2023-06-19T08:50:05;22.70;50.50
7218;DHT22;3650;53.580;10.094;2023-06-19T08:52:32;22.70;49.60
7218;DHT22;3650;53.580;10.094;2023-06-19T08:54:58;22.80;49.30
7218;DHT22;3650;53.580;10.094;2023-06-19T08:57:37;22.90;49.60
7218;DHT22;3650;53.580;10.094;2023-06-19T09:00:05;22.90;48.20
7218;DHT22;3650;53.580;10.094;2023-06-19T09:02:40;23.00;48.30
7218;DHT22;3650;53.580;10.094;2023-06-19T09:05:16;23.00;47.60
7218;DHT22;3650;53.580;10.094;2023-06-19T09:07:44;23.10;46.70
7218;DHT22;3650;53.580;10.094;2023-06-19T09:10:15;23.20;46.30
7218;DHT22;3650;53.580;10.094;2023-06-19T09:12:42;23.20;46.30
7218;DHT22;3650;53.580;10.094;2023-06-19T09:15:13;23.30;46.20
7218;DHT22;3650;53.580;10.094;2023-06-19T09:17:40;23.30;45.90
7218;DHT22;3650;53.580;10.094;2023-06-19T09:20:07;23.40;45.50
7218;DHT22;3650;53.580;10.094;2023-06-19T09:22:38;23.40;45.00
7218;DHT22;3650;53.580;10.094;2023-06-19T09:25:05;23.50;45.10
7218;DHT22;3650;53.580;10.094;2023-06-19T09:27:35;23.50;45.30
7218;DHT22;3650;53.580;10.094;2023-06-19T09:30:02;23.60;44.80
7218;DHT22;3650;53.580;10.094;2023-06-19T09:32:31;23.70;44.50
7218;DHT22;3650;53.580;10.094;2023-06-19T09:34:58;23.70;44.30
7218;DHT22;3650;53.580;10.094;2023-06-19T09:37:26;23.80;43.50
7218;DHT22;3650;53.580;10.094;2023-06-19T09:39:56;23.80;43.00
7218;DHT22;3650;53.580;10.094;2023-06-19T09:42:30;23.80;43.10
7218;DHT22;3650;53.580;10.094;2023-06-19T09:45:00;23.90;42.60
7218;DHT22;3650;53.580;10.094;2023-06-19T09:47:30;23.90;42.20
7218;DHT22;3650;53.580;10.094;2023-06-19T09:49:58;24.00;42.10
7218;DHT22;3650;53.580;10.094;2023-06-19T09:52:25;24.10;42.00
7218;DHT22;3650;53.580;10.094;2023-06-19T09:54:55;24.10;42.20
7218;DHT22;3650;53.580;10.094;2023-06-19T09:57:22;24.20;42.70
7218;DHT22;3650;53.580;10.094;2023-06-19T09:59:52;24.20;42.30
7218;DHT22;3650;53.580;10.094;2023-06-19T10:02:20;24.30;41.90
7218;DHT22;3650;53.580;10.094;2023-06-19T10:04:51;24.30;41.30
7218;DHT22;3650;53.580;10.094;2023-06-19T10:07:20;24.30;40.80
7218;DHT22;3650;53.580;10.094;2023-06-19T10:10:00;24.40;40.80
7218;DHT22;3650;53.580;10.094;2023-06-19T10:12:38;24.50;40.50
7218;DHT22;3650;53.580;10.094;2023-06-19T10:15:14;24.50;40.00
7218;DHT22;3650;53.580;10.094;2023-06-19T10:17:46;24.50;40.20
7218;DHT22;3650;53.580;10.094;2023-06-19T10:20:25;24.60;39.80
7218;DHT22;3650;53.580;10.094;2023-06-19T10:23:04;24.60;39.50
7218;DHT22;3650;53.580;10.094;2023-06-19T10:25:34;24.70;39.30
7218;DHT22;3650;53.580;10.094;2023-06-19T10:28:02;24.70;39.20
7218;DHT22;3650;53.580;10.094;2023-06-19T10:30:31;24.70;39.00
7218;DHT22;3650;53.580;10.094;2023-06-19T10:32:59;24.70;38.70
7218;DHT22;3650;53.580;10.094;2023-06-19T10:35:25;24.80;38.60
7218;DHT22;3650;53.580;10.094;2023-06-19T10:37:52;24.80;38.60
7218;DHT22;3650;53.580;10.094;2023-06-19T10:40:19;24.80;38.40
7218;DHT22;3650;53.580;10.094;2023-06-19T10:42:47;24.90;38.50
7218;DHT22;3650;53.580;10.094;2023-06-19T10:45:14;25.00;38.60
7218;DHT22;3650;53.580;10.094;2023-06-19T10:47:43;25.00;38.70
7218;DHT22;3650;53.580;10.094;2023-06-19T10:50:11;25.00;38.70
7218;DHT22;3650;53.580;10.094;2023-06-19T10:52:40;25.10;38.50
7218;DHT22;3650;53.580;10.094;2023-06-19T10:55:08;25.10;38.20
7218;DHT22;3650;53.580;10.094;2023-06-19T10:57:35;25.10;37.90
7218;DHT22;3650;53.580;10.094;2023-06-19T11:00:05;25.10;37.90
7218;DHT22;3650;53.580;10.094;2023-06-19T11:02:37;25.20;38.30
7218;DHT22;3650;53.580;10.094;2023-06-19T11:05:06;25.20;38.90
7218;DHT22;3650;53.580;10.094;2023-06-19T11:07:34;25.30;39.60
7218;DHT22;3650;53.580;10.094;2023-06-19T11:10:01;25.30;41.20
7218;DHT22;3650;53.580;10.094;2023-06-19T11:12:28;25.40;42.30
7218;DHT22;3650;53.580;10.094;2023-06-19T11:14:54;25.40;43.80
7218;DHT22;3650;53.580;10.094;2023-06-19T11:17:23;25.50;43.80
7218;DHT22;3650;53.580;10.094;2023-06-19T11:19:49;25.60;41.70
7218;DHT22;3650;53.580;10.094;2023-06-19T11:22:16;25.60;38.10
7218;DHT22;3650;53.580;10.094;2023-06-19T11:24:44;25.70;38.30
7218;DHT22;3650;53.580;10.094;2023-06-19T11:27:19;25.70;37.70
7218;DHT22;3650;53.580;10.094;2023-06-19T11:29:55;25.80;36.10
7218;DHT22;3650;53.580;10.094;2023-06-19T11:32:23;25.80;35.20
7218;DHT22;3650;53.580;10.094;2023-06-19T11:34:53;25.90;34.80
7218;DHT22;3650;53.580;10.094;2023-06-19T11:37:20;26.00;34.70
7218;DHT22;3650;53.580;10.094;2023-06-19T11:39:49;26.00;34.60
7218;DHT22;3650;53.580;10.094;2023-06-19T11:42:16;26.00;34.70
7218;DHT22;3650;53.580;10.094;2023-06-19T11:44:53;26.00;34.40
7218;DHT22;3650;53.580;10.094;2023-06-19T11:47:20;26.20;32.10
7218;DHT22;3650;53.580;10.094;2023-06-19T11:49:49;26.20;32.80
7218;DHT22;3650;53.580;10.094;2023-06-19T11:52:16;26.20;33.10
7218;DHT22;3650;53.580;10.094;2023-06-19T11:54:43;26.20;33.40
7218;DHT22;3650;53.580;10.094;2023-06-19T11:57:10;26.20;33.20
7218;DHT22;3650;53.580;10.094;2023-06-19T11:59:38;26.20;32.60
7218;DHT22;3650;53.580;10.094;2023-06-19T12:02:05;26.20;32.20
7218;DHT22;3650;53.580;10.094;2023-06-19T12:04:32;26.20;32.00
7218;DHT22;3650;53.580;10.094;2023-06-19T12:07:01;26.20;32.40
7218;DHT22;3650;53.580;10.094;2023-06-19T12:09:29;26.20;32.90
7218;DHT22;3650;53.580;10.094;2023-06-19T12:11:57;26.20;32.50
7218;DHT22;3650;53.580;10.094;2023-06-19T12:14:24;26.20;32.40
7218;DHT22;3650;53.580;10.094;2023-06-19T12:16:51;26.10;32.80
7218;DHT22;3650;53.580;10.094;2023-06-19T12:19:18;26.10;32.80
7218;DHT22;3650;53.580;10.094;2023-06-19T12:21:45;26.10;32.40
7218;DHT22;3650;53.580;10.094;2023-06-19T12:24:13;26.10;33.20
7218;DHT22;3650;53.580;10.094;2023-06-19T12:26:40;26.10;32.60
7218;DHT22;3650;53.580;10.094;2023-06-19T12:29:07;26.20;32.60
7218;DHT22;3650;53.580;10.094;2023-06-19T12:31:34;26.10;32.10
7218;DHT22;3650;53.580;10.094;2023-06-19T12:34:01;26.20;32.70
7218;DHT22;3650;53.580;10.094;2023-06-19T12:36:28;26.20;33.20
7218;DHT22;3650;53.580;10.094;2023-06-19T12:38:56;26.20;33.10
7218;DHT22;3650;53.580;10.094;2023-06-19T12:41:24;26.20;32.90
7218;DHT22;3650;53.580;10.094;2023-06-19T12:43:51;26.20;32.90
7218;DHT22;3650;53.580;10.094;2023-06-19T12:46:18;26.20;32.90
7218;DHT22;3650;53.580;10.094;2023-06-19T12:48:45;26.20;33.10
7218;DHT22;3650;53.580;10.094;2023-06-19T12:51:16;26.20;33.50
7218;DHT22;3650;53.580;10.094;2023-06-19T12:53:43;26.20;33.30
7218;DHT22;3650;53.580;10.094;2023-06-19T12:56:10;26.20;33.30
7218;DHT22;3650;53.580;10.094;2023-06-19T12:58:38;26.30;33.70
7218;DHT22;3650;53.580;10.094;2023-06-19T13:01:04;26.30;34.10
7218;DHT22;3650;53.580;10.094;2023-06-19T13:03:31;26.30;34.70
7218;DHT22;3650;53.580;10.094;2023-06-19T13:05:58;26.30;34.50
7218;DHT22;3650;53.580;10.094;2023-06-19T13:08:25;26.40;34.60
7218;DHT22;3650;53.580;10.094;2023-06-19T13:10:51;26.40;34.40
7218;DHT22;3650;53.580;10.094;2023-06-19T13:13:18;26.40;34.50
7218;DHT22;3650;53.580;10.094;2023-06-19T13:15:46;26.50;35.00
7218;DHT22;3650;53.580;10.094;2023-06-19T13:18:13;26.50;35.10
7218;DHT22;3650;53.580;10.094;2023-06-19T13:20:40;26.60;34.60
7218;DHT22;3650;53.580;10.094;2023-06-19T13:23:06;26.60;34.30
7218;DHT22;3650;53.580;10.094;2023-06-19T13:25:33;26.70;34.00
7218;DHT22;3650;53.580;10.094;2023-06-19T13:28:00;26.70;34.00
7218;DHT22;3650;53.580;10.094;2023-06-19T13:30:27;26.70;34.30
7218;DHT22;3650;53.580;10.094;2023-06-19T13:32:56;26.70;34.60
7218;DHT22;3650;53.580;10.094;2023-06-19T13:35:22;26.80;34.80
7218;DHT22;3650;53.580;10.094;2023-06-19T13:37:49;26.80;34.20
7218;DHT22;3650;53.580;10.094;2023-06-19T13:40:16;26.90;33.60
7218;DHT22;3650;53.580;10.094;2023-06-19T13:42:43;26.90;33.40
7218;DHT22;3650;53.580;10.094;2023-06-19T13:45:10;26.90;34.00
7218;DHT22;3650;53.580;10.094;2023-06-19T13:47:37;26.90;33.50
7218;DHT22;3650;53.580;10.094;2023-06-19T13:50:06;26.90;33.10
7218;DHT22;3650;53.580;10.094;2023-06-19T13:52:34;26.90;32.60
7218;DHT22;3650;53.580;10.094;2023-06-19T13:55:02;26.90;32.90
7218;DHT22;3650;53.580;10.094;2023-06-19T13:57:29;26.90;33.70
7218;DHT22;3650;53.580;10.094;2023-06-19T13:59:56;27.00;33.30
7218;DHT22;3650;53.580;10.094;2023-06-19T14:02:23;27.00;32.90
7218;DHT22;3650;53.580;10.094;2023-06-19T14:04:49;27.00;33.20
7218;DHT22;3650;53.580;10.094;2023-06-19T14:07:18;27.00;35.40
7218;DHT22;3650;53.580;10.094;2023-06-19T14:09:47;27.00;34.90
7218;DHT22;3650;53.580;10.094;2023-06-19T14:12:14;27.00;36.80
7218;DHT22;3650;53.580;10.094;2023-06-19T14:14:41;27.10;37.80
7218;DHT22;3650;53.580;10.094;2023-06-19T14:17:08;27.10;37.40
7218;DHT22;3650;53.580;10.094;2023-06-19T14:19:34;27.10;37.90
7218;DHT22;3650;53.580;10.094;2023-06-19T14:22:01;27.10;37.90
7218;DHT22;3650;53.580;10.094;2023-06-19T14:24:29;27.10;37.60
7218;DHT22;3650;53.580;10.094;2023-06-19T14:26:56;27.10;39.60
7218;DHT22;3650;53.580;10.094;2023-06-19T14:29:23;27.10;38.60
7218;DHT22;3650;53.580;10.094;2023-06-19T14:31:50;27.10;38.60
7218;DHT22;3650;53.580;10.094;2023-06-19T14:34:18;27.10;38.60
7218;DHT22;3650;53.580;10.094;2023-06-19T14:36:45;27.10;38.60
7218;DHT22;3650;53.580;10.094;2023-06-19T14:39:12;27.10;38.60
7218;DHT22;3650;53.580;10.094;2023-06-19T14:41:40;27.00;38.70
7218;DHT22;3650;53.580;10.094;2023-06-19T14:44:07;27.00;39.90
7218;DHT22;3650;53.580;10.094;2023-06-19T14:46:33;27.00;39.70
7218;DHT22;3650;53.580;10.094;2023-06-19T14:49:04;27.00;39.40
7218;DHT22;3650;53.580;10.094;2023-06-19T14:51:31;26.90;40.30
7218;DHT22;3650;53.580;10.094;2023-06-19T14:53:58;26.80;40.60
7218;DHT22;3650;53.580;10.094;2023-06-19T14:56:24;26.80;41.80
7218;DHT22;3650;53.580;10.094;2023-06-19T14:58:52;26.80;41.70
7218;DHT22;3650;53.580;10.094;2023-06-19T15:01:19;26.90;41.60
7218;DHT22;3650;53.580;10.094;2023-06-19T15:03:46;26.90;41.70
7218;DHT22;3650;53.580;10.094;2023-06-19T15:06:13;26.90;41.00
7218;DHT22;3650;53.580;10.094;2023-06-19T15:08:40;26.80;41.50
7218;DHT22;3650;53.580;10.094;2023-06-19T15:11:06;26.80;41.10
7218;DHT22;3650;53.580;10.094;2023-06-19T15:13:33;26.70;40.90
7218;DHT22;3650;53.580;10.094;2023-06-19T15:16:01;26.70;41.20
7218;DHT22;3650;53.580;10.094;2023-06-19T15:18:30;26.70;41.80
7218;DHT22;3650;53.580;10.094;2023-06-19T15:20:57;26.60;41.10
7218;DHT22;3650;53.580;10.094;2023-06-19T15:23:23;26.50;42.90
7218;DHT22;3650;53.580;10.094;2023-06-19T15:25:50;26.50;41.90
7218;DHT22;3650;53.580;10.094;2023-06-19T15:28:17;26.50;42.20
7218;DHT22;3650;53.580;10.094;2023-06-19T15:30:44;26.50;42.00
7218;DHT22;3650;53.580;10.094;2023-06-19T15:33:13;26.40;42.60
7218;DHT22;3650;53.580;10.094;2023-06-19T15:35:39;26.30;41.90
7218;DHT22;3650;53.580;10.094;2023-06-19T15:38:06;26.30;42.50
7218;DHT22;3650;53.580;10.094;2023-06-19T15:40:33;26.30;42.40
7218;DHT22;3650;53.580;10.094;2023-06-19T15:43:00;26.30;42.70
7218;DHT22;3650;53.580;10.094;2023-06-19T15:45:27;26.30;42.80
7218;DHT22;3650;53.580;10.094;2023-06-19T15:47:54;26.30;42.90